createdAt,value
2022-12-06T00:01:20.320Z,8.78
2022-12-06T00:03:51.270Z,9.62
2022-12-06T00:06:20.299Z,9.67
2022-12-06T00:08:47.930Z,10.38
2022-12-06T00:11:20.799Z,11.79
2022-12-06T00:13:47.912Z,11.32
2022-12-06T00:16:17.165Z,10.93
2022-12-06T00:18:45.570Z,11.93
2022-12-06T00:21:24.484Z,10.63
2022-12-06T00:24:05.934Z,11.27
2022-12-06T00:26:35.965Z,11.90
2022-12-06T00:29:04.167Z,12.10
2022-12-06T00:31:31.869Z,10.96
2022-12-06T00:33:58.954Z,9.90
2022-12-06T00:36:30.768Z,8.88
2022-12-06T00:39:01.029Z,9.62
2022-12-06T00:41:28.126Z,9.33
2022-12-06T00:43:55.073Z,9.45
2022-12-06T00:46:26.463Z,9.28
2022-12-06T00:48:54.511Z,10.46
2022-12-06T00:51:22.559Z,10.67
2022-12-06T00:53:49.600Z,10.41
2022-12-06T00:56:17.021Z,10.63
2022-12-06T00:58:44.433Z,10.57
2022-12-06T01:01:16.200Z,10.01
2022-12-06T01:03:44.433Z,9.52
2022-12-06T01:06:13.854Z,10.01
2022-12-06T01:08:41.385Z,9.92
2022-12-06T01:11:09.401Z,9.60
2022-12-06T01:13:36.526Z,9.47
2022-12-06T01:16:15.253Z,9.83
2022-12-06T01:18:43.154Z,9.11
2022-12-06T01:21:20.046Z,9.19
2022-12-06T01:23:47.734Z,10.27
2022-12-06T01:26:20.532Z,9.62
2022-12-06T01:28:47.833Z,9.44
2022-12-06T01:31:15.697Z,8.63
2022-12-06T01:33:43.086Z,9.65
2022-12-06T01:36:19.294Z,9.68
2022-12-06T01:38:52.883Z,9.36
2022-12-06T01:41:21.224Z,9.72
2022-12-06T01:43:48.269Z,9.35
2022-12-06T01:46:30.340Z,10.06
2022-12-06T01:49:07.678Z,9.86
2022-12-06T01:51:35.615Z,9.86
2022-12-06T01:54:04.569Z,8.83
2022-12-06T01:56:31.784Z,9.69
2022-12-06T01:58:59.843Z,9.72
2022-12-06T02:01:28.834Z,10.92
2022-12-06T02:03:56.990Z,9.57
2022-12-06T02:06:23.930Z,9.34
2022-12-06T02:08:52.259Z,9.82
2022-12-06T02:11:19.153Z,10.97
2022-12-06T02:13:46.229Z,9.34
2022-12-06T02:16:29.412Z,8.77
2022-12-06T02:19:34.851Z,9.25
2022-12-06T02:22:23.897Z,9.22
2022-12-06T02:25:22.896Z,9.42
2022-12-06T02:27:55.672Z,9.78
2022-12-06T02:30:39.507Z,9.01
2022-12-06T02:33:16.199Z,8.84
2022-12-06T02:36:12.212Z,10.59
2022-12-06T02:39:06.677Z,11.03
2022-12-06T02:41:39.552Z,10.61
2022-12-06T02:44:08.913Z,9.82
2022-12-06T02:46:37.748Z,11.34
2022-12-06T02:49:06.005Z,11.25
2022-12-06T02:51:34.719Z,11.96
2022-12-06T02:54:03.685Z,12.45
2022-12-06T02:56:34.280Z,13.39
2022-12-06T02:59:01.700Z,12.75
2022-12-06T03:01:33.420Z,12.42
2022-12-06T03:04:12.401Z,12.14
2022-12-06T03:07:03.377Z,12.28
2022-12-06T03:09:59.523Z,13.05
2022-12-06T03:12:51.390Z,12.77
2022-12-06T03:15:48.858Z,12.95
2022-12-06T03:18:22.816Z,13.39
2022-12-06T03:21:00.128Z,13.19
2022-12-06T03:23:37.780Z,12.81
2022-12-06T03:26:05.971Z,12.82
2022-12-06T03:28:35.581Z,11.94
2022-12-06T03:31:05.490Z,9.93
2022-12-06T03:33:33.904Z,10.24
2022-12-06T03:36:00.970Z,9.65
2022-12-06T03:38:41.436Z,9.34
2022-12-06T03:41:09.225Z,11.17
2022-12-06T03:43:36.212Z,10.15
2022-12-06T03:46:07.863Z,9.38
2022-12-06T03:48:37.614Z,9.31
2022-12-06T03:51:06.999Z,9.81
2022-12-06T03:53:34.400Z,9.69
2022-12-06T03:56:01.283Z,9.73
2022-12-06T03:58:28.191Z,9.71
2022-12-06T04:00:55.086Z,9.99
2022-12-06T04:03:22.075Z,10.08
2022-12-06T04:05:49.012Z,9.36
2022-12-06T04:08:15.978Z,8.22
2022-12-06T04:10:42.865Z,7.43
2022-12-06T04:13:09.773Z,8.09
2022-12-06T04:15:38.987Z,8.32
2022-12-06T04:18:11.019Z,8.25
2022-12-06T04:21:09.979Z,7.32
2022-12-06T04:23:39.285Z,7.19
2022-12-06T04:26:08.622Z,6.44
2022-12-06T04:28:53.955Z,6.85
2022-12-06T04:31:39.610Z,6.78
2022-12-06T04:34:25.546Z,6.61
2022-12-06T04:37:11.477Z,7.02
2022-12-06T04:39:38.562Z,7.48
2022-12-06T04:42:24.282Z,8.47
2022-12-06T04:44:51.403Z,8.83
2022-12-06T04:47:18.461Z,7.83
2022-12-06T04:49:45.349Z,6.74
2022-12-06T04:52:12.281Z,6.79
2022-12-06T04:54:39.928Z,7.16
2022-12-06T04:57:11.285Z,7.19
2022-12-06T04:59:39.766Z,7.49
2022-12-06T05:02:07.434Z,7.44
2022-12-06T05:04:34.482Z,8.13
2022-12-06T05:07:01.493Z,8.10
2022-12-06T05:09:28.615Z,8.25
2022-12-06T05:11:55.458Z,7.90
2022-12-06T05:14:22.324Z,8.82
2022-12-06T05:16:49.286Z,9.37
2022-12-06T05:19:16.358Z,8.44
2022-12-06T05:21:43.212Z,8.04
2022-12-06T05:24:10.200Z,8.43
2022-12-06T05:26:37.163Z,9.08
2022-12-06T05:29:04.378Z,9.43
2022-12-06T05:31:31.340Z,10.67
2022-12-06T05:33:58.234Z,11.22
2022-12-06T05:36:27.236Z,10.92
2022-12-06T05:38:54.242Z,9.67
2022-12-06T05:41:22.215Z,9.56
2022-12-06T05:43:49.593Z,9.12
2022-12-06T05:46:16.794Z,9.43
2022-12-06T05:48:43.798Z,9.04
2022-12-06T05:51:10.688Z,8.79
2022-12-06T05:53:37.607Z,7.33
2022-12-06T05:56:09.292Z,7.60
2022-12-06T05:58:36.988Z,8.49
2022-12-06T06:01:05.513Z,8.53
2022-12-06T06:03:32.643Z,8.43
2022-12-06T06:06:00.648Z,8.34
2022-12-06T06:08:28.594Z,8.61
2022-12-06T06:10:55.918Z,9.44
2022-12-06T06:13:23.332Z,8.58
2022-12-06T06:15:50.297Z,9.30
2022-12-06T06:18:17.842Z,10.81
2022-12-06T06:20:58.185Z,11.40
2022-12-06T06:23:25.532Z,11.25
2022-12-06T06:25:52.643Z,11.69
2022-12-06T06:28:19.620Z,11.49
2022-12-06T06:30:46.967Z,11.12
2022-12-06T06:33:14.288Z,10.77
2022-12-06T06:35:41.504Z,10.78
2022-12-06T06:38:08.493Z,12.11
2022-12-06T06:40:35.639Z,10.67
2022-12-06T06:43:20.794Z,11.74
2022-12-06T06:45:55.861Z,11.17
2022-12-06T06:48:23.524Z,11.64
2022-12-06T06:50:56.743Z,10.12
2022-12-06T06:53:26.553Z,9.90
2022-12-06T06:55:54.275Z,9.28
2022-12-06T06:58:21.186Z,9.01
2022-12-06T07:00:55.910Z,8.52
2022-12-06T07:03:23.590Z,10.00
2022-12-06T07:05:58.963Z,10.73
2022-12-06T07:08:27.610Z,11.07
2022-12-06T07:10:54.497Z,9.68
2022-12-06T07:13:23.239Z,9.47
2022-12-06T07:15:50.324Z,8.95
2022-12-06T07:18:17.663Z,9.45
2022-12-06T07:20:45.516Z,8.78
2022-12-06T07:23:12.932Z,8.88
2022-12-06T07:25:40.095Z,8.44
2022-12-06T07:28:07.103Z,8.76
2022-12-06T07:30:34.296Z,7.97
2022-12-06T07:33:01.223Z,8.57
2022-12-06T07:35:48.401Z,8.57
2022-12-06T07:38:14.719Z,8.95
2022-12-06T07:41:03.407Z,9.93
2022-12-06T07:43:47.155Z,8.64
2022-12-06T07:46:14.244Z,9.33
2022-12-06T07:48:41.145Z,9.57
2022-12-06T07:51:08.313Z,9.33
2022-12-06T07:53:35.174Z,8.69
2022-12-06T07:56:09.198Z,8.64
2022-12-06T07:58:36.099Z,8.79
2022-12-06T08:01:04.645Z,9.04
2022-12-06T08:03:31.815Z,9.18
2022-12-06T08:05:58.947Z,10.28
2022-12-06T08:08:28.688Z,9.58
2022-12-06T08:10:59.357Z,9.77
2022-12-06T08:13:26.311Z,10.54
2022-12-06T08:15:53.269Z,10.53
2022-12-06T08:18:20.169Z,10.33
2022-12-06T08:20:47.168Z,10.60
2022-12-06T08:23:14.069Z,10.63
2022-12-06T08:25:41.039Z,10.03
2022-12-06T08:28:08.018Z,10.29
2022-12-06T08:30:35.135Z,11.05
2022-12-06T08:33:02.034Z,11.67
2022-12-06T08:35:28.897Z,10.87
2022-12-06T08:37:55.761Z,9.79
2022-12-06T08:40:22.721Z,10.55
2022-12-06T08:42:49.628Z,10.35
2022-12-06T08:45:16.625Z,10.20
2022-12-06T08:47:43.534Z,10.39
2022-12-06T08:50:12.874Z,11.04
2022-12-06T08:52:39.749Z,10.71
2022-12-06T08:55:07.202Z,10.48
2022-12-06T08:57:34.164Z,11.38
2022-12-06T09:00:01.327Z,11.32
2022-12-06T09:02:28.504Z,10.96
2022-12-06T09:04:55.498Z,11.50
2022-12-06T09:07:23.628Z,11.63
2022-12-06T09:09:50.534Z,10.65
2022-12-06T09:12:17.439Z,11.11
2022-12-06T09:14:44.328Z,10.99
2022-12-06T09:17:11.232Z,12.06
2022-12-06T09:19:38.315Z,11.76
2022-12-06T09:22:05.388Z,11.81
2022-12-06T09:24:32.463Z,12.06
2022-12-06T09:26:59.380Z,11.98
2022-12-06T09:29:26.282Z,11.81
2022-12-06T09:31:54.233Z,11.99
2022-12-06T09:34:21.130Z,12.14
2022-12-06T09:36:57.895Z,11.93
2022-12-06T09:39:33.172Z,12.88
2022-12-06T09:42:09.127Z,12.40
2022-12-06T09:44:45.916Z,11.37
2022-12-06T09:47:24.937Z,10.97
2022-12-06T09:50:04.127Z,10.98
2022-12-06T09:53:07.835Z,10.20
2022-12-06T09:55:40.864Z,10.18
2022-12-06T09:58:22.528Z,11.12
2022-12-06T10:00:58.591Z,11.24
2022-12-06T10:04:04.050Z,11.19
2022-12-06T10:06:39.390Z,10.10
2022-12-06T10:09:37.361Z,11.41
2022-12-06T10:12:58.389Z,11.15
2022-12-06T10:16:00.209Z,11.23
2022-12-06T10:18:48.725Z,11.49
2022-12-06T10:21:43.881Z,11.48
2022-12-06T10:24:19.478Z,10.52
2022-12-06T10:26:54.705Z,11.12
2022-12-06T10:29:33.109Z,11.09
2022-12-06T10:32:19.476Z,10.67
2022-12-06T10:34:56.464Z,9.95
2022-12-06T10:38:03.494Z,11.16
2022-12-06T10:40:53.008Z,10.95
2022-12-06T10:43:30.356Z,11.47
2022-12-06T10:46:20.901Z,11.23
2022-12-06T10:49:00.558Z,10.98
2022-12-06T10:51:40.711Z,10.97
2022-12-06T10:54:28.858Z,10.68
2022-12-06T10:56:57.091Z,12.58
2022-12-06T10:59:32.007Z,12.32
2022-12-06T11:02:02.517Z,13.13
2022-12-06T11:04:33.582Z,13.31
2022-12-06T11:07:12.596Z,13.30
2022-12-06T11:09:42.339Z,12.50
2022-12-06T11:12:31.442Z,13.28
2022-12-06T11:15:18.859Z,12.73
2022-12-06T11:17:49.393Z,12.15
2022-12-06T11:20:25.358Z,12.53
2022-12-06T11:23:20.776Z,12.07
2022-12-06T11:25:56.638Z,11.68
2022-12-06T11:28:42.192Z,13.06
2022-12-06T11:31:41.372Z,13.06
2022-12-06T11:34:21.480Z,12.11
2022-12-06T11:36:55.271Z,12.19
2022-12-06T11:39:26.232Z,12.79
2022-12-06T11:41:58.156Z,12.85
2022-12-06T11:44:36.528Z,11.61
2022-12-06T11:47:03.580Z,11.32
2022-12-06T11:49:39.498Z,12.09
2022-12-06T11:52:20.345Z,11.59
2022-12-06T11:54:56.359Z,11.74
2022-12-06T11:57:29.005Z,11.62
2022-12-06T12:00:20.816Z,11.59
2022-12-06T12:02:49.625Z,12.25
2022-12-06T12:05:34.310Z,12.44
2022-12-06T12:08:05.413Z,12.12
2022-12-06T12:10:34.635Z,12.57
2022-12-06T12:13:31.979Z,11.84
2022-12-06T12:16:02.523Z,11.68
2022-12-06T12:18:33.034Z,11.62
2022-12-06T12:21:00.743Z,12.09
2022-12-06T12:23:34.224Z,11.70
2022-12-06T12:26:14.991Z,12.31
2022-12-06T12:28:44.485Z,12.30
2022-12-06T12:31:23.792Z,11.78
2022-12-06T12:34:21.358Z,12.42
2022-12-06T12:36:56.568Z,12.81
2022-12-06T12:39:33.736Z,12.25
2022-12-06T12:42:01.747Z,11.97
2022-12-06T12:44:38.805Z,12.08
2022-12-06T12:47:20.604Z,12.31
2022-12-06T12:50:15.673Z,12.70
2022-12-06T12:52:43.017Z,12.39
2022-12-06T12:55:12.974Z,13.35
2022-12-06T12:57:40.815Z,13.28
2022-12-06T13:00:16.191Z,12.98
2022-12-06T13:02:44.140Z,12.45
2022-12-06T13:05:32.653Z,12.14
2022-12-06T13:08:18.617Z,11.38
2022-12-06T13:10:50.819Z,11.90
2022-12-06T13:13:31.352Z,11.91
2022-12-06T13:15:59.093Z,11.32
2022-12-06T13:18:31.705Z,11.21
2022-12-06T13:21:01.894Z,11.18
2022-12-06T13:23:33.998Z,10.93
2022-12-06T13:26:12.542Z,11.54
2022-12-06T13:28:44.182Z,11.18
2022-12-06T13:31:23.649Z,12.42
2022-12-06T13:33:58.063Z,12.39
2022-12-06T13:36:25.720Z,13.41
2022-12-06T13:38:52.816Z,13.10
2022-12-06T13:41:53.566Z,12.42
2022-12-06T13:44:39.002Z,12.93
2022-12-06T13:47:27.800Z,12.65
2022-12-06T13:49:57.630Z,13.03
2022-12-06T13:52:42.972Z,12.97
2022-12-06T13:55:25.027Z,13.01
2022-12-06T13:58:01.051Z,12.69
2022-12-06T14:00:30.947Z,12.67
2022-12-06T14:03:13.608Z,12.82
2022-12-06T14:06:15.372Z,12.85
2022-12-06T14:08:59.698Z,12.79
2022-12-06T14:11:28.567Z,12.85
2022-12-06T14:13:55.353Z,12.81
2022-12-06T14:16:36.472Z,12.59
2022-12-06T14:19:24.882Z,13.22
2022-12-06T14:22:02.728Z,13.72
2022-12-06T14:24:38.774Z,13.39
2022-12-06T14:27:13.200Z,13.07
2022-12-06T14:29:40.839Z,13.38
2022-12-06T14:32:07.960Z,13.52
2022-12-06T14:34:36.269Z,13.30
2022-12-06T14:37:21.682Z,12.77
2022-12-06T14:39:53.564Z,12.71
2022-12-06T14:42:39.433Z,12.18
2022-12-06T14:45:13.991Z,12.27
2022-12-06T14:47:41.211Z,11.47
2022-12-06T14:50:32.286Z,11.60
2022-12-06T14:53:06.699Z,11.18
2022-12-06T14:55:39.437Z,11.65
2022-12-06T14:58:17.866Z,11.21
2022-12-06T15:00:52.927Z,11.41
2022-12-06T15:03:31.017Z,10.86
2022-12-06T15:06:22.287Z,11.06
2022-12-06T15:08:58.367Z,10.56
2022-12-06T15:11:48.362Z,10.71
2022-12-06T15:14:28.227Z,11.02
2022-12-06T15:17:10.455Z,10.44
2022-12-06T15:19:39.576Z,11.11
2022-12-06T15:22:25.640Z,11.04
2022-12-06T15:24:57.546Z,11.42
2022-12-06T15:27:27.185Z,11.50
2022-12-06T15:29:54.470Z,11.79
2022-12-06T15:32:24.314Z,11.31
2022-12-06T15:34:51.210Z,11.82
2022-12-06T15:40:05.743Z,11.72
2022-12-06T15:42:32.641Z,11.56
2022-12-06T15:44:59.579Z,11.60
2022-12-06T15:47:26.524Z,11.39
2022-12-06T15:49:58.328Z,11.64
2022-12-06T15:52:26.291Z,11.74
2022-12-06T15:54:53.193Z,11.87
2022-12-06T15:57:20.074Z,11.70
2022-12-06T15:59:47.004Z,11.42
2022-12-06T16:02:16.099Z,11.53
2022-12-06T16:04:43.541Z,11.43
2022-12-06T16:07:10.891Z,11.77
2022-12-06T16:09:37.984Z,11.34
2022-12-06T16:12:05.178Z,10.68
2022-12-06T16:14:32.068Z,10.56
2022-12-06T16:16:58.901Z,10.70
2022-12-06T16:19:45.526Z,10.82
2022-12-06T16:22:12.470Z,10.67
2022-12-06T16:24:39.334Z,10.10
2022-12-06T16:27:06.197Z,10.09
2022-12-06T16:29:33.551Z,10.15
2022-12-06T16:32:00.485Z,10.32
2022-12-06T16:34:28.743Z,10.47
2022-12-06T16:37:09.101Z,10.47
2022-12-06T16:39:36.019Z,10.65
2022-12-06T16:42:04.586Z,10.55
2022-12-06T16:44:31.944Z,9.29
2022-12-06T16:46:59.118Z,9.09
2022-12-06T16:49:46.841Z,9.23
2022-12-06T16:52:15.328Z,9.90
2022-12-06T16:54:42.480Z,9.83
2022-12-06T16:57:11.659Z,10.07
2022-12-06T16:59:47.531Z,10.71
2022-12-06T17:02:26.833Z,10.24
2022-12-06T17:04:54.064Z,10.04
2022-12-06T17:07:20.938Z,10.12
2022-12-06T17:09:48.852Z,9.89
2022-12-06T17:12:15.732Z,10.07
2022-12-06T17:14:42.711Z,10.09
2022-12-06T17:17:18.867Z,9.79
2022-12-06T17:19:57.885Z,9.84
2022-12-06T17:22:25.214Z,10.22
2022-12-06T17:24:52.118Z,9.73
2022-12-06T17:27:19.037Z,9.44
2022-12-06T17:29:46.994Z,9.72
2022-12-06T17:32:14.438Z,9.72
2022-12-06T17:34:41.401Z,8.81
2022-12-06T17:37:08.279Z,8.53
2022-12-06T17:39:35.305Z,8.16
2022-12-06T17:42:20.804Z,8.75
2022-12-06T17:44:47.675Z,8.98
2022-12-06T17:47:14.551Z,8.86
2022-12-06T17:49:41.485Z,9.68
2022-12-06T17:52:08.360Z,9.46
2022-12-06T17:54:35.253Z,8.75
2022-12-06T17:57:02.150Z,8.91
2022-12-06T17:59:31.996Z,9.37
2022-12-06T18:02:17.493Z,9.24
2022-12-06T18:04:45.419Z,8.29
2022-12-06T18:07:13.111Z,8.72
2022-12-06T18:09:41.253Z,8.99
2022-12-06T18:12:09.651Z,8.06
2022-12-06T18:14:36.657Z,8.19
2022-12-06T18:17:03.723Z,8.67
2022-12-06T18:19:30.975Z,7.51
2022-12-06T18:21:57.884Z,6.90
2022-12-06T18:24:29.231Z,7.12
2022-12-06T18:27:00.322Z,7.18
2022-12-06T18:29:27.234Z,7.71
2022-12-06T18:31:54.161Z,7.88
2022-12-06T18:34:21.122Z,8.20
2022-12-06T18:36:48.255Z,8.24
2022-12-06T18:39:24.413Z,8.03
2022-12-06T18:41:52.712Z,7.68
2022-12-06T18:44:19.641Z,7.65
2022-12-06T18:46:46.562Z,7.10
2022-12-06T18:49:14.219Z,6.71
2022-12-06T18:51:41.236Z,7.25
2022-12-06T18:54:08.881Z,6.93
2022-12-06T18:56:36.409Z,7.00
2022-12-06T18:59:05.725Z,7.38
2022-12-06T19:01:34.530Z,7.44
2022-12-06T19:04:03.570Z,7.60
2022-12-06T19:06:37.921Z,7.54
2022-12-06T19:09:08.235Z,7.02
2022-12-06T19:11:39.728Z,6.53
2022-12-06T19:14:06.963Z,6.75
2022-12-06T19:16:36.617Z,7.38
2022-12-06T19:19:10.019Z,7.38
2022-12-06T19:21:39.846Z,8.06
2022-12-06T19:24:07.400Z,8.38
2022-12-06T19:26:35.077Z,8.68
2022-12-06T19:29:02.851Z,8.58
2022-12-06T19:31:29.876Z,8.72
2022-12-06T19:33:56.760Z,8.26
2022-12-06T19:36:27.148Z,6.86
2022-12-06T19:38:59.545Z,6.52
2022-12-06T19:41:26.797Z,8.29
2022-12-06T19:44:12.624Z,8.02
2022-12-06T19:46:42.788Z,7.83
2022-12-06T19:49:10.488Z,7.63
2022-12-06T19:51:41.391Z,8.42
2022-12-06T19:54:09.103Z,8.44
2022-12-06T19:56:36.702Z,7.86
2022-12-06T19:59:11.514Z,7.22
2022-12-06T20:01:43.915Z,7.14
2022-12-06T20:04:16.057Z,6.93
2022-12-06T20:06:43.130Z,6.14
2022-12-06T20:09:10.661Z,7.15
2022-12-06T20:11:57.207Z,7.43
2022-12-06T20:14:24.418Z,7.29
2022-12-06T20:16:51.771Z,7.21
2022-12-06T20:19:19.051Z,6.99
2022-12-06T20:21:46.355Z,7.14
2022-12-06T20:24:15.502Z,7.35
2022-12-06T20:26:42.834Z,6.83
2022-12-06T20:29:10.470Z,8.30
2022-12-06T20:31:37.590Z,8.44
2022-12-06T20:34:10.184Z,9.07
2022-12-06T20:36:41.262Z,9.18
2022-12-06T20:39:08.207Z,9.14
2022-12-06T20:41:35.067Z,8.68
2022-12-06T20:44:02.541Z,7.58
2022-12-06T20:46:31.279Z,6.86
2022-12-06T20:49:02.823Z,7.38
2022-12-06T20:51:31.074Z,7.94
2022-12-06T20:53:59.823Z,8.15
2022-12-06T20:56:30.314Z,8.34
2022-12-06T20:59:00.770Z,7.97
2022-12-06T21:01:30.675Z,8.35
2022-12-06T21:03:57.752Z,8.23
2022-12-06T21:06:25.790Z,8.21
2022-12-06T21:08:54.236Z,7.86
2022-12-06T21:11:23.838Z,7.46
2022-12-06T21:13:55.324Z,8.24
2022-12-06T21:16:27.811Z,8.55
2022-12-06T21:18:56.710Z,8.20
2022-12-06T21:21:29.290Z,8.29
2022-12-06T21:23:59.065Z,8.31
2022-12-06T21:26:25.945Z,9.15
2022-12-06T21:28:53.643Z,9.80
2022-12-06T21:31:20.979Z,9.58
2022-12-06T21:33:47.937Z,9.09
2022-12-06T21:36:14.779Z,9.63
2022-12-06T21:38:42.477Z,9.66
2022-12-06T21:41:12.382Z,9.20
2022-12-06T21:43:39.443Z,9.55
2022-12-06T21:46:08.556Z,9.13
2022-12-06T21:48:35.481Z,9.08
2022-12-06T21:51:04.200Z,9.30
2022-12-06T21:53:31.374Z,8.74
2022-12-06T21:55:58.333Z,8.62
2022-12-06T21:58:25.643Z,8.03
2022-12-06T22:00:52.829Z,8.27
2022-12-06T22:03:23.153Z,8.07
2022-12-06T22:05:50.400Z,7.56
2022-12-06T22:08:17.164Z,7.05
2022-12-06T22:10:44.116Z,7.03
2022-12-06T22:13:10.972Z,7.86
2022-12-06T22:15:37.758Z,7.23
2022-12-06T22:18:04.974Z,7.60
2022-12-06T22:20:31.912Z,7.23
2022-12-06T22:22:59.814Z,6.79
2022-12-06T22:25:26.944Z,6.96
2022-12-06T22:27:54.920Z,7.15
2022-12-06T22:30:22.280Z,7.84
2022-12-06T22:32:49.156Z,7.49
2022-12-06T22:35:16.760Z,7.05
2022-12-06T22:37:43.907Z,6.82
2022-12-06T22:40:11.272Z,6.91
2022-12-06T22:42:38.176Z,6.79
2022-12-06T22:45:05.471Z,6.53
2022-12-06T22:47:32.329Z,6.42
2022-12-06T22:49:59.184Z,6.71
2022-12-06T22:52:26.250Z,6.80
2022-12-06T22:54:52.933Z,6.84
2022-12-06T22:57:19.772Z,7.09
2022-12-06T22:59:46.506Z,7.02
2022-12-06T23:02:13.409Z,7.19
2022-12-06T23:04:40.268Z,7.15
2022-12-06T23:07:06.904Z,6.79
2022-12-06T23:09:33.858Z,6.85
2022-12-06T23:12:00.878Z,6.93
2022-12-06T23:14:27.727Z,7.30
2022-12-06T23:16:54.392Z,7.49
2022-12-06T23:19:22.288Z,7.55
2022-12-06T23:21:49.124Z,7.58
2022-12-06T23:24:15.868Z,7.80
2022-12-06T23:26:45.270Z,7.55
2022-12-06T23:29:13.681Z,7.29
2022-12-06T23:31:43.175Z,7.40
2022-12-06T23:34:16.245Z,7.43
2022-12-06T23:36:43.695Z,7.64
2022-12-06T23:39:11.305Z,7.83
2022-12-06T23:41:38.577Z,7.72
2022-12-06T23:44:06.230Z,8.05
2022-12-06T23:46:35.703Z,7.99
2022-12-06T23:49:03.411Z,8.09
2022-12-06T23:51:34.238Z,7.76
2022-12-06T23:54:02.585Z,8.03
2022-12-06T23:56:32.339Z,7.97
2022-12-06T23:59:00.080Z,8.61
